createdAt,value
2019-03-27T00:01:47.497Z,11.73
2019-03-27T00:04:16.822Z,11.60
2019-03-27T00:06:45.949Z,11.28
2019-03-27T00:09:15.129Z,12.15
2019-03-27T00:11:44.339Z,10.23
2019-03-27T00:14:13.606Z,10.40
2019-03-27T00:16:42.873Z,10.47
2019-03-27T00:19:12.074Z,12.03
2019-03-27T00:21:41.264Z,12.17
2019-03-27T00:24:10.436Z,11.30
2019-03-27T00:26:39.652Z,12.35
2019-03-27T00:29:08.973Z,12.77
2019-03-27T00:31:38.171Z,10.85
2019-03-27T00:34:08.625Z,10.83
2019-03-27T00:36:37.783Z,9.90
2019-03-27T00:39:07.361Z,11.10
2019-03-27T00:41:36.648Z,12.00
2019-03-27T00:44:05.889Z,10.53
2019-03-27T00:46:35.085Z,11.90
2019-03-27T00:49:04.286Z,10.53
2019-03-27T00:51:33.467Z,11.10
2019-03-27T00:54:02.641Z,11.00
2019-03-27T00:56:31.806Z,11.95
2019-03-27T00:59:01.079Z,11.85
2019-03-27T01:01:30.346Z,11.12
2019-03-27T01:03:59.551Z,11.00
2019-03-27T01:06:28.718Z,10.43
2019-03-27T01:08:57.934Z,11.05
2019-03-27T01:11:27.189Z,11.45
2019-03-27T01:13:56.456Z,11.70
2019-03-27T01:16:25.743Z,12.43
2019-03-27T01:18:54.982Z,11.55
2019-03-27T01:21:24.166Z,12.50
2019-03-27T01:23:53.371Z,11.38
2019-03-27T01:26:22.666Z,11.22
2019-03-27T01:28:51.835Z,11.57
2019-03-27T01:31:21.094Z,10.75
2019-03-27T01:33:50.268Z,11.08
2019-03-27T01:36:19.462Z,11.65
2019-03-27T01:38:48.667Z,12.05
2019-03-27T01:41:17.848Z,10.10
2019-03-27T01:43:47.115Z,11.93
2019-03-27T01:46:16.310Z,11.73
2019-03-27T01:48:45.557Z,11.43
2019-03-27T01:51:14.839Z,10.40
2019-03-27T01:53:44.032Z,11.50
2019-03-27T01:56:13.194Z,12.40
2019-03-27T01:58:42.366Z,12.05
2019-03-27T02:01:11.537Z,11.75
2019-03-27T02:03:40.711Z,11.63
2019-03-27T02:06:09.927Z,11.88
2019-03-27T02:08:39.105Z,12.18
2019-03-27T02:11:08.361Z,13.22
2019-03-27T02:13:37.547Z,11.20
2019-03-27T02:16:07.545Z,10.90
2019-03-27T02:18:36.959Z,11.50
2019-03-27T02:21:06.213Z,11.70
2019-03-27T02:23:35.377Z,11.50
2019-03-27T02:26:04.676Z,11.38
2019-03-27T02:28:33.852Z,11.25
2019-03-27T02:31:04.479Z,10.32
2019-03-27T02:33:33.797Z,9.50
2019-03-27T02:36:02.989Z,11.18
2019-03-27T02:38:32.169Z,10.50
2019-03-27T02:41:01.533Z,11.80
2019-03-27T02:43:30.712Z,10.53
2019-03-27T02:45:59.933Z,11.05
2019-03-27T02:48:29.107Z,11.05
2019-03-27T02:50:58.263Z,9.70
2019-03-27T02:53:27.427Z,12.78
2019-03-27T02:55:56.606Z,11.60
2019-03-27T02:58:25.916Z,12.07
2019-03-27T03:00:55.096Z,10.35
2019-03-27T03:03:24.275Z,10.43
2019-03-27T03:05:53.461Z,11.93
2019-03-27T03:08:22.629Z,11.57
2019-03-27T03:10:51.831Z,11.12
2019-03-27T03:13:21.003Z,9.80
2019-03-27T03:15:50.180Z,10.82
2019-03-27T03:18:19.344Z,10.43
2019-03-27T03:20:48.528Z,11.05
2019-03-27T03:23:17.715Z,9.58
2019-03-27T03:25:46.892Z,11.33
2019-03-27T03:28:16.060Z,12.28
2019-03-27T03:30:45.252Z,10.80
2019-03-27T03:33:14.453Z,10.35
2019-03-27T03:35:43.639Z,10.53
2019-03-27T03:38:12.851Z,10.32
2019-03-27T03:40:42.024Z,11.70
2019-03-27T03:43:11.317Z,10.35
2019-03-27T03:45:40.639Z,10.23
2019-03-27T03:48:09.980Z,11.25
2019-03-27T03:50:44.202Z,11.65
2019-03-27T03:53:14.824Z,10.53
2019-03-27T03:55:44.187Z,11.63
2019-03-27T03:58:17.697Z,10.48
2019-03-27T04:00:47.033Z,11.57
2019-03-27T04:03:16.230Z,10.68
2019-03-27T04:05:45.446Z,10.58
2019-03-27T04:08:14.707Z,10.23
2019-03-27T04:10:44.196Z,10.80
2019-03-27T04:13:13.520Z,13.58
2019-03-27T04:15:42.685Z,13.53
2019-03-27T04:18:11.904Z,12.20
2019-03-27T04:20:41.065Z,12.95
2019-03-27T04:23:10.325Z,10.98
2019-03-27T04:26:07.069Z,11.12
2019-03-27T04:28:10.488Z,10.15
2019-03-27T04:30:39.665Z,10.95
2019-03-27T04:33:09.124Z,11.60
2019-03-27T04:35:38.316Z,11.48
2019-03-27T04:38:07.498Z,13.28
2019-03-27T04:40:36.696Z,13.48
2019-03-27T04:43:05.966Z,11.50
2019-03-27T04:45:35.150Z,13.68
2019-03-27T04:48:04.338Z,13.30
2019-03-27T04:50:33.523Z,11.55
2019-03-27T04:53:02.793Z,12.88
2019-03-27T04:55:31.961Z,12.55
2019-03-27T04:58:01.144Z,10.70
2019-03-27T05:00:30.305Z,11.95
2019-03-27T05:02:59.477Z,12.85
2019-03-27T05:05:28.639Z,12.95
2019-03-27T05:07:57.842Z,12.40
2019-03-27T05:10:27.009Z,12.43
2019-03-27T05:12:56.191Z,12.25
2019-03-27T05:15:25.367Z,13.60
2019-03-27T05:17:54.542Z,12.37
2019-03-27T05:20:24.202Z,12.20
2019-03-27T05:22:53.402Z,13.68
2019-03-27T05:25:22.584Z,12.80
2019-03-27T05:27:51.767Z,13.62
2019-03-27T05:30:28.265Z,13.88
2019-03-27T05:32:57.752Z,13.35
2019-03-27T05:35:27.056Z,13.53
2019-03-27T05:37:56.269Z,12.85
2019-03-27T05:40:25.569Z,12.43
2019-03-27T05:43:01.010Z,12.45
2019-03-27T05:45:26.389Z,14.60
2019-03-27T05:47:59.699Z,13.75
2019-03-27T05:50:26.463Z,13.83
2019-03-27T05:52:55.626Z,12.10
2019-03-27T05:55:26.557Z,14.05
2019-03-27T05:57:55.689Z,13.65
2019-03-27T06:00:24.900Z,13.15
2019-03-27T06:02:54.070Z,13.53
2019-03-27T06:05:23.279Z,13.38
2019-03-27T06:07:52.452Z,12.98
2019-03-27T06:10:21.752Z,12.85
2019-03-27T06:12:50.937Z,13.05
2019-03-27T06:15:20.150Z,12.18
2019-03-27T06:17:49.311Z,14.80
2019-03-27T06:20:18.498Z,14.03
2019-03-27T06:22:47.667Z,12.00
2019-03-27T06:25:16.847Z,11.93
2019-03-27T06:27:46.013Z,13.35
2019-03-27T06:30:15.334Z,14.25
2019-03-27T06:32:44.528Z,15.50
2019-03-27T06:35:13.711Z,14.65
2019-03-27T06:37:42.883Z,15.15
2019-03-27T06:40:12.277Z,15.93
2019-03-27T06:42:41.461Z,16.37
2019-03-27T06:45:10.760Z,13.83
2019-03-27T06:47:39.961Z,15.32
2019-03-27T06:50:09.315Z,16.60
2019-03-27T06:52:38.536Z,14.90
2019-03-27T06:55:08.463Z,16.20
2019-03-27T06:57:37.643Z,16.02
2019-03-27T07:00:09.061Z,16.17
2019-03-27T07:02:38.530Z,18.92
2019-03-27T07:05:08.321Z,15.93
2019-03-27T07:07:37.641Z,19.62
2019-03-27T07:10:07.210Z,19.42
2019-03-27T07:12:36.532Z,19.52
2019-03-27T07:15:06.523Z,20.68
2019-03-27T07:17:35.767Z,20.25
2019-03-27T07:20:05.693Z,21.48
2019-03-27T07:22:35.002Z,18.60
2019-03-27T07:25:04.898Z,19.87
2019-03-27T07:27:34.075Z,21.60
2019-03-27T07:30:03.354Z,19.95
2019-03-27T07:32:32.578Z,20.35
2019-03-27T07:35:01.769Z,17.48
2019-03-27T07:37:30.975Z,21.90
2019-03-27T07:40:00.179Z,20.12
2019-03-27T07:42:29.331Z,19.60
2019-03-27T07:44:58.606Z,19.67
2019-03-27T07:47:27.750Z,17.90
2019-03-27T07:49:56.983Z,19.67
2019-03-27T07:52:26.266Z,17.32
2019-03-27T07:54:55.542Z,17.45
2019-03-27T07:57:24.872Z,19.35
2019-03-27T07:59:54.157Z,19.75
2019-03-27T08:02:23.677Z,18.92
2019-03-27T08:04:53.046Z,18.73
2019-03-27T08:07:27.090Z,17.07
2019-03-27T08:09:53.189Z,16.85
2019-03-27T08:12:22.375Z,15.13
2019-03-27T08:14:51.619Z,19.50
2019-03-27T08:17:24.541Z,16.85
2019-03-27T08:19:55.551Z,17.92
2019-03-27T08:22:24.734Z,17.35
2019-03-27T08:24:54.920Z,17.00
2019-03-27T08:27:24.147Z,13.90
2019-03-27T08:29:53.382Z,14.57
2019-03-27T08:32:22.645Z,13.10
2019-03-27T08:34:51.818Z,13.53
2019-03-27T08:37:21.038Z,12.00
2019-03-27T08:39:50.211Z,10.03
2019-03-27T08:42:19.397Z,8.87
2019-03-27T08:44:48.586Z,9.00
2019-03-27T08:47:17.794Z,9.78
2019-03-27T08:49:46.983Z,9.40
2019-03-27T08:52:16.328Z,9.80
2019-03-27T08:54:45.610Z,8.90
2019-03-27T08:57:14.854Z,9.33
2019-03-27T08:59:44.103Z,7.17
2019-03-27T09:02:13.755Z,5.77
2019-03-27T09:04:42.920Z,6.60
2019-03-27T09:07:12.157Z,7.53
2019-03-27T09:09:41.341Z,9.20
2019-03-27T09:12:10.529Z,9.50
2019-03-27T09:14:39.811Z,8.30
2019-03-27T09:17:08.982Z,8.47
2019-03-27T09:19:38.174Z,8.17
2019-03-27T09:22:07.420Z,7.00
2019-03-27T09:24:36.597Z,6.53
2019-03-27T09:27:05.867Z,5.20
2019-03-27T09:29:35.044Z,6.00
2019-03-27T09:32:04.323Z,5.80
2019-03-27T09:34:33.491Z,4.47
2019-03-27T09:37:02.687Z,6.10
2019-03-27T09:39:32.118Z,5.17
2019-03-27T09:42:01.310Z,7.13
2019-03-27T09:44:30.479Z,6.23
2019-03-27T09:46:59.666Z,6.37
2019-03-27T09:49:28.901Z,6.17
2019-03-27T09:51:58.072Z,7.58
2019-03-27T09:54:27.244Z,6.97
2019-03-27T09:56:56.509Z,6.67
2019-03-27T09:59:25.707Z,7.50
2019-03-27T10:01:54.957Z,6.40
2019-03-27T10:04:24.205Z,7.87
2019-03-27T10:06:53.403Z,7.30
2019-03-27T10:09:22.599Z,6.80
2019-03-27T10:11:51.849Z,8.60
2019-03-27T10:14:21.099Z,8.03
2019-03-27T10:16:50.278Z,7.83
2019-03-27T10:19:19.456Z,6.43
2019-03-27T10:21:50.768Z,5.20
2019-03-27T10:24:20.078Z,5.63
2019-03-27T10:26:49.377Z,5.50
2019-03-27T10:29:18.552Z,7.00
2019-03-27T10:31:47.735Z,7.80
2019-03-27T10:34:16.915Z,7.73
2019-03-27T10:36:46.171Z,7.90
2019-03-27T10:39:15.445Z,8.10
2019-03-27T10:41:44.693Z,8.07
2019-03-27T10:44:13.877Z,7.70
2019-03-27T10:46:43.077Z,7.03
2019-03-27T10:49:12.278Z,8.03
2019-03-27T10:51:41.530Z,8.90
2019-03-27T10:54:10.897Z,6.90
2019-03-27T10:56:40.187Z,7.10
2019-03-27T10:59:09.446Z,7.60
2019-03-27T11:01:38.761Z,6.60
2019-03-27T11:04:07.930Z,6.87
2019-03-27T11:06:37.189Z,6.37
2019-03-27T11:09:08.973Z,8.00
2019-03-27T11:11:38.260Z,6.03
2019-03-27T11:14:07.529Z,7.13
2019-03-27T11:16:36.718Z,5.93
2019-03-27T11:19:06.341Z,6.30
2019-03-27T11:21:36.748Z,7.57
2019-03-27T11:24:06.126Z,6.93
2019-03-27T11:26:35.415Z,6.00
2019-03-27T11:29:04.632Z,6.60
2019-03-27T11:31:33.913Z,6.00
2019-03-27T11:34:03.149Z,7.10
2019-03-27T11:36:35.081Z,5.77
2019-03-27T11:39:04.964Z,6.03
2019-03-27T11:41:34.191Z,7.07
2019-03-27T11:44:03.431Z,6.30
2019-03-27T11:46:33.708Z,8.07
2019-03-27T11:49:02.865Z,7.60
2019-03-27T11:51:32.055Z,6.60
2019-03-27T11:54:01.236Z,6.67
2019-03-27T11:56:30.541Z,6.60
2019-03-27T11:58:59.840Z,6.90
2019-03-27T12:01:38.946Z,6.57
2019-03-27T12:03:59.992Z,6.67
2019-03-27T12:06:29.222Z,6.50
2019-03-27T12:08:58.615Z,7.60
2019-03-27T12:11:27.794Z,5.60
2019-03-27T12:13:59.167Z,7.23
2019-03-27T12:16:28.366Z,7.53
2019-03-27T12:18:57.562Z,6.63
2019-03-27T12:21:26.715Z,6.87
2019-03-27T12:23:56.006Z,5.80
2019-03-27T12:26:25.253Z,6.10
2019-03-27T12:28:54.420Z,6.83
2019-03-27T12:31:23.591Z,7.03
2019-03-27T12:33:52.781Z,5.37
2019-03-27T12:36:21.968Z,5.83
2019-03-27T12:38:51.163Z,5.30
2019-03-27T12:41:20.352Z,5.30
2019-03-27T12:43:49.580Z,6.00
2019-03-27T12:46:18.737Z,6.67
2019-03-27T12:48:48.018Z,6.80
2019-03-27T12:51:17.293Z,5.97
2019-03-27T12:53:46.484Z,5.77
2019-03-27T12:56:15.734Z,5.40
2019-03-27T12:58:45.000Z,6.23
2019-03-27T13:01:14.332Z,6.27
2019-03-27T13:03:44.648Z,5.90
2019-03-27T13:06:13.977Z,5.90
2019-03-27T13:08:43.284Z,6.30
2019-03-27T13:11:12.567Z,5.97
2019-03-27T13:13:41.746Z,5.90
2019-03-27T13:16:10.975Z,7.63
2019-03-27T13:18:40.188Z,5.63
2019-03-27T13:21:09.435Z,6.17
2019-03-27T13:23:38.638Z,6.10
2019-03-27T13:26:07.842Z,7.33
2019-03-27T13:28:48.248Z,6.23
2019-03-27T13:31:07.931Z,7.00
2019-03-27T13:33:37.112Z,6.10
2019-03-27T13:36:07.741Z,5.93
2019-03-27T13:38:37.261Z,6.00
2019-03-27T13:41:06.505Z,5.50
2019-03-27T13:43:35.693Z,6.00
2019-03-27T13:46:04.956Z,5.80
2019-03-27T13:48:34.146Z,5.73
2019-03-27T13:51:03.305Z,4.83
2019-03-27T13:53:32.492Z,6.30
2019-03-27T13:56:01.673Z,5.63
2019-03-27T13:58:30.859Z,5.30
2019-03-27T14:01:00.149Z,6.93
2019-03-27T14:03:29.407Z,5.70
2019-03-27T14:05:58.637Z,5.40
2019-03-27T14:08:27.797Z,5.70
2019-03-27T14:10:56.981Z,5.40
2019-03-27T14:13:26.299Z,6.17
2019-03-27T14:15:55.483Z,6.23
2019-03-27T14:18:24.674Z,6.33
2019-03-27T14:20:53.907Z,5.70
2019-03-27T14:23:23.076Z,6.17
2019-03-27T14:25:52.328Z,7.60
2019-03-27T14:28:21.543Z,6.70
2019-03-27T14:31:00.012Z,5.73
2019-03-27T14:33:29.164Z,6.43
2019-03-27T14:35:58.420Z,6.27
2019-03-27T14:38:27.744Z,5.30
2019-03-27T14:40:57.025Z,6.40
2019-03-27T14:43:27.229Z,7.23
2019-03-27T14:45:56.584Z,5.90
2019-03-27T14:48:25.759Z,5.23
2019-03-27T14:50:55.267Z,6.17
2019-03-27T14:53:24.439Z,6.00
2019-03-27T14:55:55.532Z,5.83
2019-03-27T14:58:24.695Z,5.23
2019-03-27T15:00:53.974Z,5.47
2019-03-27T15:03:23.282Z,6.10
2019-03-27T15:05:52.475Z,8.60
2019-03-27T15:08:21.722Z,6.00
2019-03-27T15:10:51.024Z,6.57
2019-03-27T15:13:20.191Z,6.60
2019-03-27T15:15:49.391Z,5.60
2019-03-27T15:18:18.615Z,6.10
2019-03-27T15:20:47.781Z,6.87
2019-03-27T15:23:16.956Z,6.63
2019-03-27T15:25:46.140Z,6.70
2019-03-27T15:28:15.335Z,6.10
2019-03-27T15:30:44.520Z,6.03
2019-03-27T15:33:13.777Z,5.57
2019-03-27T15:35:44.543Z,5.10
2019-03-27T15:38:18.519Z,6.47
2019-03-27T15:40:54.329Z,6.10
2019-03-27T15:43:30.567Z,6.03
2019-03-27T15:46:44.142Z,5.77
2019-03-27T15:49:19.384Z,5.07
2019-03-27T15:52:11.507Z,6.60
2019-03-27T15:54:54.753Z,5.50
2019-03-27T15:57:35.483Z,5.87
2019-03-27T16:00:08.844Z,5.93
2019-03-27T16:02:42.683Z,6.07
2019-03-27T16:05:19.186Z,6.53
2019-03-27T16:07:49.414Z,5.60
2019-03-27T16:10:21.857Z,7.03
2019-03-27T16:12:56.134Z,5.93
2019-03-27T16:15:37.054Z,6.30
2019-03-27T16:18:08.839Z,6.73
2019-03-27T16:20:41.129Z,5.70
2019-03-27T16:23:13.177Z,6.97
2019-03-27T16:25:44.335Z,5.27
2019-03-27T16:28:13.555Z,6.67
2019-03-27T16:30:42.719Z,5.60
2019-03-27T16:33:11.976Z,5.60
2019-03-27T16:35:41.158Z,5.37
2019-03-27T16:38:10.332Z,5.97
2019-03-27T16:40:47.324Z,6.47
2019-03-27T16:43:17.182Z,5.37
2019-03-27T16:45:46.570Z,5.57
2019-03-27T16:48:15.817Z,5.27
2019-03-27T16:50:44.990Z,5.20
2019-03-27T16:53:14.285Z,5.73
2019-03-27T16:55:43.439Z,6.07
2019-03-27T16:58:12.617Z,5.10
2019-03-27T17:00:41.867Z,5.20
2019-03-27T17:03:11.212Z,15.17
2019-03-27T17:05:53.259Z,22.57
2019-03-27T17:08:11.569Z,7.80
2019-03-27T17:10:40.738Z,6.10
2019-03-27T17:13:09.918Z,6.37
2019-03-27T17:15:39.093Z,5.23
2019-03-27T17:18:08.502Z,5.10
2019-03-27T17:20:37.662Z,5.57
2019-03-27T17:23:17.372Z,5.73
2019-03-27T17:25:37.882Z,4.67
2019-03-27T17:28:08.501Z,5.83
2019-03-27T17:30:37.838Z,6.27
2019-03-27T17:33:07.023Z,5.63
2019-03-27T17:35:36.279Z,4.50
2019-03-27T17:38:05.581Z,5.00
2019-03-27T17:40:34.745Z,4.73
2019-03-27T17:43:03.963Z,4.50
2019-03-27T17:45:33.190Z,4.70
2019-03-27T17:48:02.349Z,4.60
2019-03-27T17:50:31.532Z,4.33
2019-03-27T17:53:00.779Z,5.33
2019-03-27T17:55:29.947Z,4.37
2019-03-27T17:57:59.123Z,4.10
2019-03-27T18:00:41.941Z,4.47
2019-03-27T18:03:11.208Z,4.47
2019-03-27T18:05:40.365Z,4.77
2019-03-27T18:08:09.571Z,4.43
2019-03-27T18:10:38.811Z,3.90
2019-03-27T18:13:08.134Z,4.30
2019-03-27T18:15:37.309Z,4.00
2019-03-27T18:18:06.500Z,5.33
2019-03-27T18:20:35.703Z,4.80
2019-03-27T18:23:04.868Z,4.90
2019-03-27T18:25:34.109Z,5.43
2019-03-27T18:28:03.309Z,6.07
2019-03-27T18:30:32.497Z,5.33
2019-03-27T18:33:01.749Z,4.70
2019-03-27T18:35:30.966Z,4.90
2019-03-27T18:38:00.214Z,5.30
2019-03-27T18:40:29.485Z,5.70
2019-03-27T18:42:58.668Z,5.03
2019-03-27T18:45:27.932Z,4.70
2019-03-27T18:47:57.223Z,4.30
2019-03-27T18:50:26.700Z,4.40
2019-03-27T18:52:55.873Z,4.57
2019-03-27T18:55:26.833Z,5.70
2019-03-27T18:58:00.320Z,4.80
2019-03-27T19:00:27.112Z,4.45
2019-03-27T19:02:56.377Z,5.10
2019-03-27T19:05:25.730Z,5.35
2019-03-27T19:07:54.904Z,5.15
2019-03-27T19:10:24.103Z,4.87
2019-03-27T19:12:53.266Z,5.03
2019-03-27T19:15:22.520Z,4.97
2019-03-27T19:17:51.716Z,6.17
2019-03-27T19:20:20.926Z,5.28
2019-03-27T19:22:50.114Z,5.20
2019-03-27T19:25:19.284Z,5.30
2019-03-27T19:27:48.445Z,4.70
2019-03-27T19:30:18.200Z,5.90
2019-03-27T19:32:47.444Z,5.70
2019-03-27T19:35:16.622Z,5.22
2019-03-27T19:37:45.800Z,5.30
2019-03-27T19:40:15.141Z,6.10
2019-03-27T19:42:44.394Z,6.10
2019-03-27T19:45:13.668Z,6.75
2019-03-27T19:47:42.925Z,5.53
2019-03-27T19:50:12.329Z,6.40
2019-03-27T19:52:41.568Z,5.75
2019-03-27T19:55:10.816Z,5.92
2019-03-27T19:57:39.998Z,6.03
2019-03-27T20:00:10.136Z,5.83
2019-03-27T20:02:42.351Z,6.00
2019-03-27T20:05:14.842Z,5.40
2019-03-27T20:07:50.965Z,6.25
2019-03-27T20:10:23.743Z,5.22
2019-03-27T20:12:55.178Z,6.03
2019-03-27T20:15:39.083Z,6.47
2019-03-27T20:18:08.805Z,5.20
2019-03-27T20:20:40.023Z,5.58
2019-03-27T20:23:15.100Z,5.78
2019-03-27T20:25:58.343Z,5.80
2019-03-27T20:28:29.544Z,6.37
2019-03-27T20:31:09.724Z,6.47
2019-03-27T20:33:44.158Z,7.60
2019-03-27T20:36:17.408Z,6.60
2019-03-27T20:38:48.390Z,6.30
2019-03-27T20:41:19.824Z,5.72
2019-03-27T20:43:49.766Z,6.70
2019-03-27T20:46:26.393Z,6.37
2019-03-27T20:48:56.024Z,6.20
2019-03-27T20:51:28.316Z,7.35
2019-03-27T20:54:01.718Z,7.70
2019-03-27T20:56:35.551Z,7.95
2019-03-27T20:59:07.292Z,8.68
2019-03-27T21:01:38.099Z,8.30
2019-03-27T21:04:14.606Z,8.00
2019-03-27T21:06:44.336Z,8.20
2019-03-27T21:09:16.380Z,8.60
2019-03-27T21:11:48.057Z,9.25
2019-03-27T21:14:19.529Z,8.60
2019-03-27T21:16:51.636Z,8.48
2019-03-27T21:19:37.656Z,7.70
2019-03-27T21:22:11.360Z,7.35
2019-03-27T21:24:41.862Z,8.85
2019-03-27T21:27:16.927Z,9.75
2019-03-27T21:29:46.601Z,9.23
2019-03-27T21:32:17.731Z,8.50
2019-03-27T21:34:52.224Z,9.23
2019-03-27T21:37:47.936Z,9.80
2019-03-27T21:40:18.332Z,10.15
2019-03-27T21:42:54.451Z,9.63
2019-03-27T21:45:32.020Z,11.70
2019-03-27T21:48:01.928Z,10.60
2019-03-27T21:50:34.582Z,9.70
2019-03-27T21:53:15.293Z,10.28
2019-03-27T21:55:45.642Z,10.15
2019-03-27T21:58:20.526Z,9.73
2019-03-27T22:00:53.991Z,9.60
2019-03-27T22:03:25.226Z,9.75
2019-03-27T22:05:57.313Z,9.95
2019-03-27T22:08:29.020Z,11.33
2019-03-27T22:11:00.721Z,10.15
2019-03-27T22:13:30.338Z,9.48
2019-03-27T22:15:59.868Z,12.03
2019-03-27T22:18:30.666Z,9.98
2019-03-27T22:21:06.858Z,10.38
2019-03-27T22:23:38.888Z,11.30
2019-03-27T22:26:09.625Z,11.10
2019-03-27T22:28:44.949Z,11.80
2019-03-27T22:31:14.652Z,11.22
2019-03-27T22:33:45.666Z,12.10
2019-03-27T22:36:15.186Z,11.43
2019-03-27T22:38:44.803Z,11.50
2019-03-27T22:41:15.660Z,11.90
2019-03-27T22:43:48.280Z,12.80
2019-03-27T22:46:20.055Z,12.73
2019-03-27T22:48:49.383Z,13.00
2019-03-27T22:51:21.829Z,13.95
2019-03-27T22:53:53.397Z,13.30
2019-03-27T22:56:22.705Z,13.70
2019-03-27T22:58:51.869Z,13.15
2019-03-27T23:01:21.189Z,15.35
2019-03-27T23:03:50.358Z,13.60
2019-03-27T23:06:19.599Z,12.63
2019-03-27T23:08:48.855Z,12.70
2019-03-27T23:11:18.033Z,13.75
2019-03-27T23:13:47.196Z,13.22
2019-03-27T23:16:16.378Z,14.78
2019-03-27T23:18:45.623Z,13.75
2019-03-27T23:21:14.805Z,14.45
2019-03-27T23:23:43.968Z,13.95
2019-03-27T23:26:13.125Z,14.30
2019-03-27T23:28:42.393Z,13.83
2019-03-27T23:31:11.563Z,13.25
2019-03-27T23:33:40.783Z,16.37
2019-03-27T23:36:10.048Z,14.33
2019-03-27T23:38:39.370Z,15.38
2019-03-27T23:41:08.708Z,13.53
2019-03-27T23:43:37.994Z,14.95
2019-03-27T23:46:07.277Z,13.13
2019-03-27T23:48:36.482Z,14.80
2019-03-27T23:51:05.777Z,14.98
2019-03-27T23:53:34.968Z,14.70
2019-03-27T23:56:15.820Z,13.90
2019-03-27T23:58:35.123Z,14.00
